Time;durP1;ratioP1;P1;durP2;ratioP2;P2;SDS_P1;SDS_P2;PMS_P1;PMS_P2;Temp;Humidity;BMP_temperature;BMP_pressure;BME280_temperature;BME280_humidity;BME280_pressure;Samples;Min_cycle;Max_cycle;Signal;HPM_P1;HPM_P2
2022/09/23 04:52:19;;;;;;;;;;;;;;;15.46;66.17;97100.94;4243869;27;10360;-66
2022/09/23 04:54:21;;;;;;;;;;;;;;;15.75;65.34;97110.19;4230990;27;5657;-66
2022/09/23 04:56:26;;;;;;;;;;;;;;;15.97;64.96;97108.78;4231432;27;5984;-66
2022/09/23 04:58:29;;;;;;;;;;;;;;;16.14;64.87;97109.81;4222053;27;5766;-66
2022/09/23 05:00:32;;;;;;;;;;;;;;;16.28;64.58;97110.50;4227378;27;5654;-66
2022/09/23 05:02:35;;;;;;;;;;;;;;;16.38;64.29;97116.13;4242042;27;5702;-67
2022/09/23 05:04:38;;;;;;;;;;;;;;;16.51;63.86;97117.84;4241902;27;5116;-64
2022/09/23 05:06:42;;;;;;;;;;;;;;;16.59;63.79;97117.56;4235662;27;5645;-66
2022/09/23 05:08:49;;;;;;;;;;;;;;;16.65;63.64;97111.34;4237104;27;5679;-67
2022/09/23 05:10:56;;;;;;;;;;;;;;;16.69;63.57;97123.22;4234226;27;5760;-67
2022/09/23 05:12:59;;;;;;;;;;;;;;;16.74;63.44;97119.88;4231055;28;5746;-67
2022/09/23 05:15:02;;;;;;;;;;;;;;;16.76;63.42;97118.63;4230095;28;7041;-67
2022/09/23 05:17:05;;;;;;;;;;;;;;;16.78;63.39;97113.88;4230397;28;5722;-67
2022/09/23 05:19:08;;;;;;;;;;;;;;;16.82;63.27;97116.91;4231175;28;5671;-65
2022/09/23 05:21:12;;;;;;;;;;;;;;;16.83;63.21;97119.34;4220559;28;5684;-66
2022/09/23 05:23:15;;;;;;;;;;;;;;;16.82;63.30;97114.22;4214330;28;5958;-67
2022/09/23 05:25:19;;;;;;;;;;;;;;;16.82;62.89;97115.03;4227937;28;5691;-66
2022/09/23 05:27:22;;;;;;;;;;;;;;;16.85;62.88;97125.25;4229935;28;5671;-66
2022/09/23 05:29:25;;;;;;;;;;;;;;;16.86;62.95;97123.41;4229709;28;5889;-66
2022/09/23 05:31:29;;;;;;;;;;;;;;;16.86;62.78;97118.88;4234799;27;5877;-66
2022/09/23 05:33:33;;;;;;;;;;;;;;;16.86;62.76;97129.56;4228769;27;5667;-65
2022/09/23 05:35:35;;;;;;;;;;;;;;;16.88;62.68;97132.84;4228720;28;5675;-67
2022/09/23 05:37:38;;;;;;;;;;;;;;;16.90;62.62;97126.47;4229898;28;5660;-67
2022/09/23 05:39:41;;;;;;;;;;;;;;;16.90;62.63;97129.13;4228135;28;5675;-66
2022/09/23 05:41:45;;;;;;;;;;;;;;;16.90;62.32;97129.13;4229366;28;5845;-67
2022/09/23 05:43:49;;;;;;;;;;;;;;;16.89;62.37;97128.31;4230761;28;5667;-68
2022/09/23 05:45:52;;;;;;;;;;;;;;;16.91;62.42;97125.41;4230645;27;5663;-68
2022/09/23 05:47:55;;;;;;;;;;;;;;;16.93;62.36;97128.69;4230659;28;5842;-68
2022/09/23 05:49:58;;;;;;;;;;;;;;;16.93;62.26;97129.50;4230670;28;5686;-68
2022/09/23 05:52:02;;;;;;;;;;;;;;;16.93;62.29;97129.50;4225749;27;5675;-68
2022/09/23 05:54:05;;;;;;;;;;;;;;;16.96;62.16;97122.88;4219259;28;5109;-69
2022/09/23 05:56:08;;;;;;;;;;;;;;;16.98;62.03;97118.13;4218331;28;5797;-68
2022/09/23 05:58:13;;;;;;;;;;;;;;;17.00;62.19;97116.06;4218920;28;5134;-68
2022/09/23 06:00:16;;;;;;;;;;;;;;;17.02;62.01;97122.00;4218502;28;5872;-68
2022/09/23 06:02:19;;;;;;;;;;;;;;;17.04;62.05;97125.25;4204570;28;5783;-67
2022/09/23 06:04:22;;;;;;;;;;;;;;;17.05;61.71;97126.88;4206912;28;6291;-68
2022/09/23 06:06:27;;;;;;;;;;;;;;;17.07;61.92;97130.13;4210244;28;5948;-65
2022/09/23 06:08:30;;;;;;;;;;;;;;;17.08;61.79;97121.06;4214333;28;5826;-65
2022/09/23 06:10:38;;;;;;;;;;;;;;;17.09;61.68;97120.84;4206223;28;5775;-66
2022/09/23 06:12:43;;;;;;;;;;;;;;;17.12;61.63;97119.59;4200190;28;5688;-67
2022/09/23 06:14:47;;;;;;;;;;;;;;;17.16;61.34;97118.09;4215716;28;5679;-66
2022/09/23 06:16:50;;;;;;;;;;;;;;;17.16;61.44;97113.56;4219148;28;5675;-66
2022/09/23 06:18:53;;;;;;;;;;;;;;;17.18;61.32;97116.00;4207596;28;5700;-66
2022/09/23 06:20:55;;;;;;;;;;;;;;;17.21;61.35;97118.22;4204424;28;5691;-66
2022/09/23 06:23:04;;;;;;;;;;;;;;;17.26;61.22;97120.22;4216117;28;5671;-66
2022/09/23 06:25:11;;;;;;;;;;;;;;;17.29;61.06;97125.09;4215576;28;5823;-66
2022/09/23 06:27:14;;;;;;;;;;;;;;;17.31;61.08;97121.16;4216516;28;5817;-66
2022/09/23 06:29:18;;;;;;;;;;;;;;;17.31;61.08;97123.81;4202139;28;5680;-66
2022/09/23 06:31:22;;;;;;;;;;;;;;;17.30;61.05;97124.88;4218239;28;6336;-67
2022/09/23 06:33:25;;;;;;;;;;;;;;;17.31;60.99;97117.66;4218676;28;5790;-66
2022/09/23 06:35:38;;;;;;;;;;;;;;;17.35;60.99;97116.19;4218726;28;5762;-67
2022/09/23 06:37:41;;;;;;;;;;;;;;;17.36;60.88;97115.16;4218600;28;5695;-67
2022/09/23 06:39:45;;;;;;;;;;;;;;;17.38;60.92;97121.06;4217272;28;5755;-68
2022/09/23 06:41:47;;;;;;;;;;;;;;;17.39;60.87;97109.34;4217961;28;5664;-66
2022/09/23 06:43:50;;;;;;;;;;;;;;;17.40;60.79;97114.44;4218463;28;5667;-66
2022/09/23 06:45:54;;;;;;;;;;;;;;;17.45;60.67;97119.13;4218748;28;5687;-66
2022/09/23 06:47:58;;;;;;;;;;;;;;;17.46;60.79;97121.56;4218423;28;5668;-66
2022/09/23 06:50:00;;;;;;;;;;;;;;;17.49;60.61;97124.81;4218514;27;5702;-66
2022/09/23 06:52:05;;;;;;;;;;;;;;;17.51;60.74;97125.41;4204407;28;5821;-66
2022/09/23 06:54:08;;;;;;;;;;;;;;;17.53;60.81;97128.66;4218502;28;5672;-66
2022/09/23 06:56:11;;;;;;;;;;;;;;;17.53;60.64;97117.97;4218282;28;5688;-66
2022/09/23 06:58:14;;;;;;;;;;;;;;;17.55;60.60;97127.38;4218064;28;5668;-66
2022/09/23 07:00:17;;;;;;;;;;;;;;;17.56;60.59;97128.22;4218179;28;5824;-66
2022/09/23 07:02:20;;;;;;;;;;;;;;;17.57;60.38;97125.31;4218678;28;5722;-66
2022/09/23 07:04:24;;;;;;;;;;;;;;;17.59;60.40;97130.44;4215993;28;5679;-66
2022/09/23 07:06:31;;;;;;;;;;;;;;;17.59;60.44;97128.56;4216875;28;5684;-66
2022/09/23 07:08:35;;;;;;;;;;;;;;;17.61;60.25;97131.81;4204161;28;5753;-66
2022/09/23 07:10:39;;;;;;;;;;;;;;;17.64;60.27;97130.53;4215995;28;5691;-66
2022/09/23 07:12:45;;;;;;;;;;;;;;;17.62;60.25;97127.28;4217238;28;5663;-66
2022/09/23 07:14:48;;;;;;;;;;;;;;;17.63;60.26;97134.25;4217349;28;5691;-66
2022/09/23 07:16:52;;;;;;;;;;;;;;;17.63;60.13;97139.59;4216035;28;6323;-66
2022/09/23 07:18:55;;;;;;;;;;;;;;;17.64;60.17;97135.88;4216688;28;5795;-66
2022/09/23 07:21:05;;;;;;;;;;;;;;;17.64;60.00;97141.22;4216112;28;5671;-66
2022/09/23 07:23:09;;;;;;;;;;;;;;;17.66;60.13;97136.47;4214718;28;5774;-66
2022/09/23 07:25:12;;;;;;;;;;;;;;;17.66;60.12;97137.28;4216026;28;5670;-66
2022/09/23 07:27:18;;;;;;;;;;;;;;;17.68;59.91;97142.41;4206403;28;5701;-66
2022/09/23 07:29:22;;;;;;;;;;;;;;;17.68;60.07;97135.22;4207195;28;5672;-65
2022/09/23 07:31:25;;;;;;;;;;;;;;;17.70;59.84;97135.00;4211486;28;5695;-66
2022/09/23 07:33:42;;;;;;;;;;;;;;;17.70;59.72;97127.81;4214546;28;6383;-66
2022/09/23 07:35:46;;;;;;;;;;;;;;;17.72;59.90;97127.56;4219688;28;5671;-65
2022/09/23 07:37:51;;;;;;;;;;;;;;;17.73;59.72;97134.53;4216163;28;5751;-65
2022/09/23 07:39:54;;;;;;;;;;;;;;;17.74;59.84;97131.63;4217213;28;5667;-65
2022/09/23 07:41:58;;;;;;;;;;;;;;;17.75;59.80;97138.63;4216135;28;5746;-65
2022/09/23 07:44:05;;;;;;;;;;;;;;;17.77;59.80;97142.91;4215876;28;5687;-65
2022/09/23 07:46:13;;;;;;;;;;;;;;;17.77;59.64;97145.59;4211985;28;5720;-66
2022/09/23 07:48:16;;;;;;;;;;;;;;;17.79;59.74;97140.84;4213576;28;5671;-66
2022/09/23 07:50:19;;;;;;;;;;;;;;;17.80;59.67;97145.97;4217814;28;5826;-66
2022/09/23 07:52:22;;;;;;;;;;;;;;;17.81;59.74;97141.44;4218175;27;5663;-66
2022/09/23 07:54:28;;;;;;;;;;;;;;;17.83;59.64;97139.34;4216132;28;5675;-66
2022/09/23 07:56:31;;;;;;;;;;;;;;;17.84;59.83;97136.41;4215824;28;6348;-67
2022/09/23 07:58:35;;;;;;;;;;;;;;;17.86;59.80;97142.34;4217215;28;5828;-68
2022/09/23 08:00:38;;;;;;;;;;;;;;;17.89;59.47;97149.91;4217183;28;5738;-66
2022/09/23 08:02:41;;;;;;;;;;;;;;;17.91;59.50;97130.97;4217035;28;5675;-69
2022/09/23 08:04:45;;;;;;;;;;;;;;;17.91;59.54;97139.00;4217364;28;5783;-67
2022/09/23 08:06:49;;;;;;;;;;;;;;;17.90;59.51;97135.50;4215506;28;5675;-67
2022/09/23 08:08:52;;;;;;;;;;;;;;;17.97;59.47;97140.75;4214371;28;5761;-68
2022/09/23 08:11:02;;;;;;;;;;;;;;;17.98;59.52;97143.19;4215290;28;5691;-68
2022/09/23 08:13:05;;;;;;;;;;;;;;;17.99;59.46;97135.97;4216481;28;5687;-68
2022/09/23 08:15:09;;;;;;;;;;;;;;;18.03;59.46;97137.97;4216838;28;5652;-68
2022/09/23 08:17:13;;;;;;;;;;;;;;;18.07;59.39;97142.84;4217176;28;5672;-68
2022/09/23 08:19:16;;;;;;;;;;;;;;;18.11;59.44;97144.00;4217060;28;5770;-68
2022/09/23 08:21:20;;;;;;;;;;;;;;;18.13;59.38;97145.41;4215916;28;5899;-69
2022/09/23 08:23:23;;;;;;;;;;;;;;;18.16;59.21;97150.28;4217301;28;5753;-69
2022/09/23 08:25:33;;;;;;;;;;;;;;;18.18;59.12;97144.72;4216986;28;5738;-67
2022/09/23 08:27:38;;;;;;;;;;;;;;;18.17;59.08;97145.75;4216802;28;5670;-67
2022/09/23 08:29:40;;;;;;;;;;;;;;;18.17;59.24;97143.91;4217332;28;5679;-68
2022/09/23 08:31:43;;;;;;;;;;;;;;;18.19;59.31;97151.69;4217089;28;5765;-68
2022/09/23 08:33:46;;;;;;;;;;;;;;;18.21;59.18;97149.59;4216814;28;5675;-67
2022/09/23 08:35:49;;;;;;;;;;;;;;;18.22;59.26;97160.06;4217060;28;5778;-68
2022/09/23 08:37:52;;;;;;;;;;;;;;;18.24;59.26;97157.16;4202773;28;5700;-67
2022/09/23 08:39:55;;;;;;;;;;;;;;;18.24;59.08;97151.81;4200109;28;5841;-68
2022/09/23 08:42:07;;;;;;;;;;;;;;;18.23;59.02;97159.03;4199752;28;5712;-67
2022/09/23 08:44:15;;;;;;;;;;;;;;;18.26;59.05;97152.41;4207307;28;5750;-68
2022/09/23 08:46:24;;;;;;;;;;;;;;;18.27;59.05;97148.66;4217103;28;5777;-68
2022/09/23 08:48:30;;;;;;;;;;;;;;;18.28;59.04;97147.63;4216653;28;5671;-67
2022/09/23 08:50:41;;;;;;;;;;;;;;;18.31;58.94;97139.13;4214260;28;5713;-67
2022/09/23 08:52:51;;;;;;;;;;;;;;;18.35;58.87;97151.00;4206265;28;5680;-67
2022/09/23 08:54:54;;;;;;;;;;;;;;;18.38;58.86;97149.72;4210669;28;5678;-68
2022/09/23 08:57:01;;;;;;;;;;;;;;;18.39;58.76;97151.34;4216822;28;5672;-67
2022/09/23 08:59:11;;;;;;;;;;;;;;;18.38;58.69;97147.84;4216743;28;5093;-67
2022/09/23 09:01:22;;;;;;;;;;;;;;;18.40;58.89;97145.75;4207790;28;5756;-68
2022/09/23 09:03:33;;;;;;;;;;;;;;;18.44;58.67;97146.91;4200005;28;5798;-68
2022/09/23 09:05:37;;;;;;;;;;;;;;;18.47;58.67;97145.63;4198770;28;5692;-68
2022/09/23 09:07:41;;;;;;;;;;;;;;;18.49;58.63;97144.34;4200115;28;5700;-68
2022/09/23 09:09:48;;;;;;;;;;;;;;;18.51;58.55;97147.59;4199850;28;5779;-68
2022/09/23 09:11:56;;;;;;;;;;;;;;;18.51;58.36;97142.25;4199525;28;5713;-68
2022/09/23 09:14:12;;;;;;;;;;;;;;;18.50;58.40;97145.97;4199925;28;6516;-68
2022/09/23 09:16:27;;;;;;;;;;;;;;;18.52;58.21;97141.19;4198969;28;5699;-68
2022/09/23 09:18:54;;;;;;;;;;;;;;;18.52;58.30;97135.03;4199772;28;5803;-67
2022/09/23 09:21:04;;;;;;;;;;;;;;;18.52;58.11;97132.34;4199631;28;5713;-67
2022/09/23 09:23:20;;;;;;;;;;;;;;;18.52;57.89;97135.84;4199741;28;6659;-68
2022/09/23 09:25:28;;;;;;;;;;;;;;;18.55;57.79;97135.34;4199859;28;5685;-67
2022/09/23 09:27:40;;;;;;;;;;;;;;;18.55;57.70;97134.53;4199508;28;5703;-67
2022/09/23 09:29:53;;;;;;;;;;;;;;;18.54;57.68;97128.38;4203046;28;5874;-67
2022/09/23 09:31:58;;;;;;;;;;;;;;;18.55;57.69;97121.97;4202872;28;5692;-67
2022/09/23 09:34:05;;;;;;;;;;;;;;;18.59;57.55;97122.34;4203089;27;5700;-67
2022/09/23 09:36:22;;;;;;;;;;;;;;;18.58;57.38;97116.16;4203003;28;5696;-69
2022/09/23 09:38:28;;;;;;;;;;;;;;;18.59;57.17;97117.78;4202483;28;5820;-70
2022/09/23 09:40:33;;;;;;;;;;;;;;;18.61;56.97;97125.59;4202554;28;6366;-68
2022/09/23 09:42:39;;;;;;;;;;;;;;;18.60;57.21;97119.41;4202507;28;6081;-68
2022/09/23 09:44:48;;;;;;;;;;;;;;;18.61;56.90;97118.38;4214479;28;5761;-68
2022/09/23 09:47:00;;;;;;;;;;;;;;;18.63;56.68;97113.59;4202819;28;5701;-68
2022/09/23 09:49:11;;;;;;;;;;;;;;;18.67;56.85;97115.81;4202710;28;5688;-68
2022/09/23 09:51:18;;;;;;;;;;;;;;;18.69;56.55;97114.56;4212193;28;5663;-68
2022/09/23 09:53:26;;;;;;;;;;;;;;;18.71;56.58;97114.31;4204316;28;5685;-68
2022/09/23 09:55:29;;;;;;;;;;;;;;;18.73;56.22;97115.69;4202715;28;5911;-68
2022/09/23 09:57:38;;;;;;;;;;;;;;;18.74;56.27;97116.50;4202355;28;5693;-68
2022/09/23 09:59:43;;;;;;;;;;;;;;;18.74;56.39;97119.19;4202640;28;5681;-68
2022/09/23 10:01:46;;;;;;;;;;;;;;;18.77;56.33;97118.69;4214632;28;5683;-68
2022/09/23 10:03:51;;;;;;;;;;;;;;;18.80;56.12;97112.88;4201945;28;5796;-69
2022/09/23 10:06:00;;;;;;;;;;;;;;;18.80;56.39;97112.88;4202507;28;5791;-71
2022/09/23 10:08:23;;;;;;;;;;;;;;;18.79;56.17;97109.38;4206478;28;5937;-71
2022/09/23 10:10:27;;;;;;;;;;;;;;;18.81;56.07;97109.16;4210766;28;5779;-71
2022/09/23 10:12:45;;;;;;;;;;;;;;;18.81;56.12;97101.13;4218548;28;7076;-71
2022/09/23 10:14:51;;;;;;;;;;;;;;;18.80;56.06;97103.00;4208404;28;5746;-71
2022/09/23 10:17:04;;;;;;;;;;;;;;;18.79;56.02;97100.53;4218811;28;5753;-71
2022/09/23 10:19:17;;;;;;;;;;;;;;;18.81;56.07;97098.44;4219314;28;5081;-71
2022/09/23 10:21:23;;;;;;;;;;;;;;;18.82;55.97;97094.72;4217315;28;5780;-71
2022/09/23 10:23:32;;;;;;;;;;;;;;;18.85;55.82;97094.22;4218239;28;5798;-71
2022/09/23 10:25:36;;;;;;;;;;;;;;;18.87;55.97;97098.28;4218921;28;5675;-71
2022/09/23 10:27:39;;;;;;;;;;;;;;;18.87;56.12;97087.56;4215770;28;5770;-70
2022/09/23 10:29:50;;;;;;;;;;;;;;;18.86;55.70;97085.13;4217848;28;7393;-71
2022/09/23 10:32:20;;;;;;;;;;;;;;;18.85;55.72;97076.28;4218874;28;5837;-71
2022/09/23 10:34:26;;;;;;;;;;;;;;;18.85;55.39;97075.47;4217259;28;5861;-71
2022/09/23 10:36:32;;;;;;;;;;;;;;;18.83;55.42;97070.38;4218489;28;5751;-71
2022/09/23 10:38:35;;;;;;;;;;;;;;;18.86;55.24;97069.06;4218688;28;5671;-71
2022/09/23 10:48:10;;;;;;;;;;;;;;;18.90;54.87;97059.50;4218836;28;5699;-70
2022/09/23 10:50:31;;;;;;;;;;;;;;;18.94;54.80;97051.81;4218496;28;5675;-70
2022/09/23 10:52:57;;;;;;;;;;;;;;;18.94;54.66;97054.50;4211037;28;5780;-71
2022/09/23 10:55:10;;;;;;;;;;;;;;;18.96;54.63;97055.06;4201617;28;5883;-71
2022/09/23 10:57:40;;;;;;;;;;;;;;;18.99;54.81;97044.66;4214432;28;5668;-71
2022/09/23 10:59:57;;;;;;;;;;;;;;;19.04;54.41;97043.97;4206718;28;5675;-71
2022/09/23 11:02:17;;;;;;;;;;;;;;;19.04;54.42;97044.78;4218293;28;5671;-71
2022/09/23 11:04:57;;;;;;;;;;;;;;;19.06;54.51;97042.66;4217000;28;5679;-71
2022/09/23 11:07:19;;;;;;;;;;;;;;;19.06;54.34;97042.66;4201483;28;5732;-72
2022/09/23 11:09:32;;;;;;;;;;;;;;;19.05;54.45;97035.69;4201493;28;5756;-71
2022/09/23 11:11:50;;;;;;;;;;;;;;;19.07;54.22;97035.44;4200931;28;5688;-72
2022/09/23 11:14:16;;;;;;;;;;;;;;;19.10;54.28;97027.72;4211437;28;5734;-71
2022/09/23 11:16:30;;;;;;;;;;;;;;;19.12;54.03;97028.28;4218150;28;5769;-71
2022/09/23 11:18:49;;;;;;;;;;;;;;;19.14;53.86;97025.34;4218091;28;5690;-72
2022/09/23 11:21:03;;;;;;;;;;;;;;;19.16;53.71;97021.41;4217892;28;5663;-71
2022/09/23 11:23:38;;;;;;;;;;;;;;;19.17;53.94;97017.66;4201151;28;5680;-71
2022/09/23 11:25:51;;;;;;;;;;;;;;;19.19;53.54;97020.91;4191027;28;5680;-71
2022/09/23 11:28:17;;;;;;;;;;;;;;;19.18;53.79;97019.28;4207155;28;5731;-72
2022/09/23 11:30:21;;;;;;;;;;;;;;;19.17;53.54;97016.84;4215750;28;5675;-71
2022/09/23 11:32:53;;;;;;;;;;;;;;;19.15;53.77;97013.63;4217816;28;5675;-70
2022/09/23 11:35:10;;;;;;;;;;;;;;;19.18;53.59;97013.94;4215585;28;5675;-71
2022/09/23 11:37:18;;;;;;;;;;;;;;;19.22;53.38;97008.06;4201786;28;5798;-71
2022/09/23 11:39:32;;;;;;;;;;;;;;;19.22;53.43;97006.22;4200971;28;5764;-71
2022/09/23 11:41:39;;;;;;;;;;;;;;;19.21;53.44;97001.91;4199457;28;5703;-70
2022/09/23 11:43:46;;;;;;;;;;;;;;;19.26;53.12;96998.50;4203890;28;5678;-70
2022/09/23 11:45:55;;;;;;;;;;;;;;;19.28;53.39;96996.41;4216562;28;5747;-70
2022/09/23 11:48:03;;;;;;;;;;;;;;;19.31;53.33;96985.19;4216501;28;5682;-70
2022/09/23 11:50:17;;;;;;;;;;;;;;;19.34;53.23;96982.81;4217002;28;5687;-71
2022/09/23 11:52:26;;;;;;;;;;;;;;;19.37;52.83;96989.59;4206304;28;5808;-67
2022/09/23 11:54:36;;;;;;;;;;;;;;;19.42;52.81;96993.16;4214322;28;5773;-68
2022/09/23 11:56:45;;;;;;;;;;;;;;;19.44;52.50;96985.66;4212856;28;5842;-67
2022/09/23 11:59:01;;;;;;;;;;;;;;;19.46;52.74;96982.72;4209862;28;5671;-68
2022/09/23 12:01:09;;;;;;;;;;;;;;;19.48;52.53;96983.31;4217002;28;5852;-68
2022/09/23 12:03:22;;;;;;;;;;;;;;;19.48;52.51;96975.28;4214559;28;5751;-70
2022/09/23 12:05:46;;;;;;;;;;;;;;;19.54;52.34;96976.97;4216801;28;5683;-68
2022/09/23 12:07:55;;;;;;;;;;;;;;;19.57;52.05;96978.38;4216935;28;5699;-68
2022/09/23 12:10:03;;;;;;;;;;;;;;;19.59;52.04;96973.56;4203464;28;5850;-67
2022/09/23 12:12:17;;;;;;;;;;;;;;;19.62;52.05;96970.41;4217182;28;6005;-68
2022/09/23 12:14:31;;;;;;;;;;;;;;;19.64;52.11;96966.41;4216724;28;5693;-68
2022/09/23 12:17:07;;;;;;;;;;;;;;;19.66;52.01;96964.31;4216921;28;5731;-68
2022/09/23 12:19:29;;;;;;;;;;;;;;;19.68;51.79;96959.50;4213323;28;5781;-66
2022/09/23 12:21:49;;;;;;;;;;;;;;;19.71;51.58;96963.56;4207427;28;5664;-69
2022/09/23 12:24:12;;;;;;;;;;;;;;;19.73;51.62;96945.38;4214367;28;5675;-68
2022/09/23 12:26:23;;;;;;;;;;;;;;;19.75;51.34;96946.72;4216567;28;5687;-68
2022/09/23 12:28:32;;;;;;;;;;;;;;;19.81;51.30;96952.16;4216716;28;5061;-68
2022/09/23 12:30:38;;;;;;;;;;;;;;;19.83;51.14;96942.00;4215063;28;5858;-68
2022/09/23 12:32:42;;;;;;;;;;;;;;;19.85;51.28;96942.56;4217065;28;5680;-68
2022/09/23 12:34:48;;;;;;;;;;;;;;;19.88;51.11;96944.75;4215400;28;5766;-68
2022/09/23 12:36:51;;;;;;;;;;;;;;;19.93;51.08;96942.13;4216172;28;5093;-68
2022/09/23 12:39:01;;;;;;;;;;;;;;;19.98;51.06;96934.16;4217275;28;5774;-68
2022/09/23 12:41:20;;;;;;;;;;;;;;;19.96;50.89;96931.72;4214712;28;6415;-68
2022/09/23 12:43:33;;;;;;;;;;;;;;;20.00;51.14;96932.84;4216869;28;5686;-68
2022/09/23 12:45:40;;;;;;;;;;;;;;;20.02;50.88;96928.03;4208388;28;5794;-67
2022/09/23 12:47:43;;;;;;;;;;;;;;;20.05;50.88;96929.41;4216732;28;5675;-68
2022/09/23 12:49:47;;;;;;;;;;;;;;;20.06;50.69;96933.72;4209939;28;6867;-68
2022/09/23 12:52:24;;;;;;;;;;;;;;;20.06;50.62;96929.16;4215859;28;5762;-68
2022/09/23 12:54:28;;;;;;;;;;;;;;;20.09;50.60;96930.53;4216344;28;5695;-69
2022/09/23 12:56:59;;;;;;;;;;;;;;;20.12;50.67;96929.22;4214352;28;5667;-69
2022/09/23 12:59:22;;;;;;;;;;;;;;;20.16;50.64;96917.75;4216786;28;5672;-68
2022/09/23 13:01:26;;;;;;;;;;;;;;;20.19;50.69;96914.56;4215270;28;6506;-69
2022/09/23 13:08:17;;;;;;;;;;;;;;;20.19;50.59;96905.69;4218836;28;5664;-69
2022/09/23 13:10:28;;;;;;;;;;;;;;;20.23;50.29;96902.25;4220239;28;5707;-68
2022/09/23 13:12:37;;;;;;;;;;;;;;;20.26;50.50;96898.22;4218440;28;5671;-69
2022/09/23 13:14:45;;;;;;;;;;;;;;;20.27;50.60;96898.00;4213577;28;5800;-68
2022/09/23 13:16:49;;;;;;;;;;;;;;;20.28;50.35;96896.13;4203444;28;5805;-69
2022/09/23 13:18:54;;;;;;;;;;;;;;;20.30;50.05;96891.31;4205104;28;5078;-70
2022/09/23 13:20:57;;;;;;;;;;;;;;;20.31;50.06;96885.69;4209739;28;5696;-69
2022/09/23 13:23:11;;;;;;;;;;;;;;;20.32;50.09;96884.63;4213949;28;5762;-68
2022/09/23 13:25:19;;;;;;;;;;;;;;;20.35;50.09;96877.94;4216489;28;5734;-72
2022/09/23 13:27:28;;;;;;;;;;;;;;;20.33;50.19;96877.38;4217970;28;5675;-69
2022/09/23 13:29:36;;;;;;;;;;;;;;;20.33;50.16;96875.50;4218146;28;5817;-70
2022/09/23 13:31:42;;;;;;;;;;;;;;;20.32;50.42;96878.44;4213744;28;5740;-70
2022/09/23 13:33:49;;;;;;;;;;;;;;;20.32;50.29;96879.25;4218858;28;5827;-72
2022/09/23 13:36:01;;;;;;;;;;;;;;;20.34;50.42;96881.69;4219253;28;5663;-71
2022/09/23 13:38:11;;;;;;;;;;;;;;;20.38;50.00;96880.09;4217043;28;5822;-73
2022/09/23 13:40:20;;;;;;;;;;;;;;;20.45;50.06;96871.88;4219829;28;5671;-72
2022/09/23 13:42:27;;;;;;;;;;;;;;;20.51;49.85;96876.25;4217617;28;6337;-72
2022/09/23 13:44:30;;;;;;;;;;;;;;;20.52;49.75;96872.50;4213640;28;5840;-72
2022/09/23 13:46:41;;;;;;;;;;;;;;;20.53;50.16;96868.75;4207330;28;5689;-73
2022/09/23 13:48:48;;;;;;;;;;;;;;;20.56;50.18;96870.91;4212488;28;5797;-74
2022/09/23 13:50:52;;;;;;;;;;;;;;;20.57;50.03;96865.28;4210344;28;5824;-69
2022/09/23 13:52:57;;;;;;;;;;;;;;;20.60;50.02;96866.66;4212908;28;5727;-69
2022/09/23 13:55:00;;;;;;;;;;;;;;;20.62;49.86;96857.28;4217482;28;5650;-70
2022/09/23 13:57:03;;;;;;;;;;;;;;;20.63;50.00;96858.09;4219477;28;5824;-69
2022/09/23 13:59:24;;;;;;;;;;;;;;;20.64;49.58;96855.16;4211346;28;5794;-73
2022/09/23 14:01:32;;;;;;;;;;;;;;;20.62;49.79;96857.28;4209862;28;5795;-72
2022/09/23 14:03:37;;;;;;;;;;;;;;;20.63;49.95;96856.22;4215010;28;5870;-72
2022/09/23 14:05:41;;;;;;;;;;;;;;;20.66;50.01;96852.22;4218471;28;5827;-69
2022/09/23 14:07:45;;;;;;;;;;;;;;;20.70;49.80;96842.56;4212766;28;5149;-70
2022/09/23 14:09:51;;;;;;;;;;;;;;;20.73;49.70;96842.06;4209580;28;5754;-70
2022/09/23 14:11:56;;;;;;;;;;;;;;;20.76;49.70;96843.44;4215943;28;6337;-69
2022/09/23 14:14:05;;;;;;;;;;;;;;;20.77;49.70;96840.47;4216684;28;5854;-69
2022/09/23 14:16:13;;;;;;;;;;;;;;;20.78;49.57;96842.09;4212522;28;5762;-70
2022/09/23 14:18:24;;;;;;;;;;;;;;;20.79;49.79;96835.66;4210229;28;5675;-69
2022/09/23 14:20:27;;;;;;;;;;;;;;;20.80;49.63;96842.66;4215855;28;5737;-70
2022/09/23 14:22:31;;;;;;;;;;;;;;;20.80;49.92;96839.16;4218405;28;5770;-70
2022/09/23 14:24:36;;;;;;;;;;;;;;;20.83;49.73;96835.94;4215728;28;5679;-71
2022/09/23 14:26:40;;;;;;;;;;;;;;;20.85;49.60;96834.66;4217655;28;5765;-70
2022/09/23 14:28:42;;;;;;;;;;;;;;;20.85;49.69;96829.28;4218030;28;5684;-71
2022/09/23 14:30:47;;;;;;;;;;;;;;;20.86;49.93;96825.50;4216592;28;5738;-70
2022/09/23 14:32:49;;;;;;;;;;;;;;;20.87;50.06;96831.69;4217541;28;6483;-70
2022/09/23 14:35:05;;;;;;;;;;;;;;;20.87;49.76;96834.38;4214001;28;5799;-70
2022/09/23 14:39:51;;;;;;;;;;;;;;;20.86;49.82;96830.09;4209922;28;5758;-71
2022/09/23 14:41:59;;;;;;;;;;;;;;;20.82;49.87;96824.38;4213052;28;5784;-73
2022/09/23 14:44:02;;;;;;;;;;;;;;;20.83;49.63;96817.13;4216111;28;5679;-70
2022/09/23 14:46:05;;;;;;;;;;;;;;;20.80;49.71;96815.78;4212314;28;5731;-71
2022/09/23 14:48:13;;;;;;;;;;;;;;;20.83;49.96;96809.06;4215594;28;5769;-71
2022/09/23 14:52:49;;;;;;;;;;;;;;;20.81;49.91;96814.72;4214287;28;5680;-71
2022/09/23 14:54:53;;;;;;;;;;;;;;;20.79;49.68;96802.63;4216846;28;5663;-71
2022/09/23 14:56:56;;;;;;;;;;;;;;;20.80;49.71;96805.03;4216901;28;5738;-71
2022/09/23 14:59:00;;;;;;;;;;;;;;;20.82;49.92;96805.59;4217303;28;5794;-71
2022/09/23 15:01:25;;;;;;;;;;;;;;;20.84;49.81;96806.16;4216584;28;5753;-70
2022/09/23 15:03:29;;;;;;;;;;;;;;;20.85;49.56;96802.41;4214775;28;5675;-71
2022/09/23 15:05:41;;;;;;;;;;;;;;;20.86;49.75;96782.53;4201624;28;5697;-71
2022/09/23 15:07:48;;;;;;;;;;;;;;;20.90;49.74;96794.38;4205027;28;5704;-71
2022/09/23 15:09:53;;;;;;;;;;;;;;;20.93;49.57;96788.47;4203187;28;5729;-70
2022/09/23 15:12:01;;;;;;;;;;;;;;;20.96;49.37;96797.09;4211677;28;5828;-71
2022/09/23 15:14:04;;;;;;;;;;;;;;;20.96;49.32;96791.72;4215589;28;5666;-71
2022/09/23 15:16:28;;;;;;;;;;;;;;;20.99;49.47;96796.56;4216866;28;5686;-70
2022/09/23 15:18:34;;;;;;;;;;;;;;;20.98;49.81;96792.28;4204610;28;5708;-71
2022/09/23 15:20:37;;;;;;;;;;;;;;;20.94;49.64;96797.34;4214856;28;5680;-71
2022/09/23 15:22:44;;;;;;;;;;;;;;;20.89;49.89;96795.44;4212717;28;5085;-71
2022/09/23 15:24:47;;;;;;;;;;;;;;;20.87;49.90;96789.50;4206235;28;5759;-70
2022/09/23 15:26:57;;;;;;;;;;;;;;;20.86;49.96;96792.47;4212401;28;5793;-71
2022/09/23 15:29:00;;;;;;;;;;;;;;;20.86;50.13;96792.47;4211820;28;5766;-71
2022/09/23 15:31:04;;;;;;;;;;;;;;;20.86;50.16;96787.91;4215889;28;6421;-70
2022/09/23 15:33:11;;;;;;;;;;;;;;;20.83;50.33;96783.03;4204000;28;6495;-72
2022/09/23 15:35:17;;;;;;;;;;;;;;;20.83;50.31;96788.41;4200778;28;5698;-72
2022/09/23 15:37:20;;;;;;;;;;;;;;;20.81;50.49;96785.16;4208777;28;6115;-71
2022/09/23 15:39:23;;;;;;;;;;;;;;;20.79;50.31;96787.31;4214045;28;5670;-70
2022/09/23 15:41:37;;;;;;;;;;;;;;;20.77;50.10;96789.44;4200182;28;5796;-71
2022/09/23 15:43:42;;;;;;;;;;;;;;;20.77;50.32;96792.13;4199881;28;5788;-71
2022/09/23 15:45:47;;;;;;;;;;;;;;;20.75;50.50;96790.78;4208049;28;6379;-71
2022/09/23 15:47:51;;;;;;;;;;;;;;;20.73;50.56;96785.66;4211543;28;6287;-71
2022/09/23 15:49:54;;;;;;;;;;;;;;;20.72;50.37;96791.25;4213629;28;5686;-70
2022/09/23 15:51:59;;;;;;;;;;;;;;;20.70;50.43;96791.53;4205950;28;5799;-71
2022/09/23 15:54:02;;;;;;;;;;;;;;;20.70;50.68;96794.22;4215041;28;5864;-71
2022/09/23 15:56:06;;;;;;;;;;;;;;;20.68;50.48;96790.97;4214895;28;5679;-71
2022/09/23 15:58:09;;;;;;;;;;;;;;;20.68;50.39;96788.28;4210270;28;5818;-71
2022/09/23 16:00:14;;;;;;;;;;;;;;;20.68;50.58;96790.97;4211788;28;5667;-71
2022/09/23 16:02:21;;;;;;;;;;;;;;;20.67;50.60;96793.94;4211230;28;5859;-74
2022/09/23 16:04:24;;;;;;;;;;;;;;;20.64;50.87;96787.19;4210270;28;5748;-74
2022/09/23 16:06:27;;;;;;;;;;;;;;;20.63;50.96;96785.59;4205547;28;5693;-75
2022/09/23 16:08:31;;;;;;;;;;;;;;;20.64;50.54;96779.16;4206885;28;5832;-75
2022/09/23 16:10:35;;;;;;;;;;;;;;;20.63;50.87;96785.59;4215234;28;5664;-75
2022/09/23 16:12:38;;;;;;;;;;;;;;;20.66;50.80;96782.38;4215300;28;5823;-75
2022/09/23 16:14:40;;;;;;;;;;;;;;;20.65;50.69;96786.13;4215458;28;5791;-74
2022/09/23 16:16:46;;;;;;;;;;;;;;;20.65;50.54;96791.50;4214493;28;5781;-75
2022/09/23 16:18:50;;;;;;;;;;;;;;;20.64;50.52;96784.50;4200828;28;5833;-75
2022/09/23 16:20:53;;;;;;;;;;;;;;;20.64;50.42;96776.47;4215319;28;5842;-74
2022/09/23 16:22:59;;;;;;;;;;;;;;;20.64;50.47;96779.16;4208922;28;5693;-73